sensor_id;sensor_type;location;lat;lon;timestamp;temperature;humidity
49242;DHT22;35079;52.704;13.814;2023-02-25T00:01:53;4.00;99.90
49242;DHT22;35079;52.704;13.814;2023-02-25T00:04:20;4.10;99.90
49242;DHT22;35079;52.704;13.814;2023-02-25T00:06:45;4.10;99.90
49242;DHT22;35079;52.704;13.814;2023-02-25T00:09:11;4.10;99.90
49242;DHT22;35079;52.704;13.814;2023-02-25T00:11:36;4.10;99.90
49242;DHT22;35079;52.704;13.814;2023-02-25T00:14:03;4.20;99.90
49242;DHT22;35079;52.704;13.814;2023-02-25T00:16:28;4.00;99.90
49242;DHT22;35079;52.704;13.814;2023-02-25T00:18:55;4.00;99.90
49242;DHT22;35079;52.704;13.814;2023-02-25T00:21:21;4.00;99.90
49242;DHT22;35079;52.704;13.814;2023-02-25T00:23:47;4.00;99.90
49242;DHT22;35079;52.704;13.814;2023-02-25T00:26:15;3.90;99.90
49242;DHT22;35079;52.704;13.814;2023-02-25T00:28:41;4.00;99.90
49242;DHT22;35079;52.704;13.814;2023-02-25T00:31:09;3.80;99.90
49242;DHT22;35079;52.704;13.814;2023-02-25T00:33:35;3.90;99.90
49242;DHT22;35079;52.704;13.814;2023-02-25T00:36:05;3.80;99.90
49242;DHT22;35079;52.704;13.814;2023-02-25T00:38:41;3.90;99.90
49242;DHT22;35079;52.704;13.814;2023-02-25T00:41:09;3.70;99.90
49242;DHT22;35079;52.704;13.814;2023-02-25T00:43:42;3.60;99.90
49242;DHT22;35079;52.704;13.814;2023-02-25T00:46:11;3.70;99.90
49242;DHT22;35079;52.704;13.814;2023-02-25T00:48:37;3.60;99.90
49242;DHT22;35079;52.704;13.814;2023-02-25T00:51:05;3.50;99.90
49242;DHT22;35079;52.704;13.814;2023-02-25T00:53:31;3.50;99.90
49242;DHT22;35079;52.704;13.814;2023-02-25T00:56:00;3.70;99.90
49242;DHT22;35079;52.704;13.814;2023-02-25T00:58:27;3.50;99.90
49242;DHT22;35079;52.704;13.814;2023-02-25T01:00:52;3.70;99.90
49242;DHT22;35079;52.704;13.814;2023-02-25T01:03:18;3.70;99.90
49242;DHT22;35079;52.704;13.814;2023-02-25T01:05:44;3.50;99.90
49242;DHT22;35079;52.704;13.814;2023-02-25T01:08:17;3.50;99.90
49242;DHT22;35079;52.704;13.814;2023-02-25T01:10:45;3.50;99.90
49242;DHT22;35079;52.704;13.814;2023-02-25T01:13:11;3.60;99.90
49242;DHT22;35079;52.704;13.814;2023-02-25T01:15:37;3.70;99.90
49242;DHT22;35079;52.704;13.814;2023-02-25T01:18:03;3.70;99.90
49242;DHT22;35079;52.704;13.814;2023-02-25T01:20:31;3.60;99.90
49242;DHT22;35079;52.704;13.814;2023-02-25T01:22:57;3.50;99.90
49242;DHT22;35079;52.704;13.814;2023-02-25T01:25:23;3.50;99.90
49242;DHT22;35079;52.704;13.814;2023-02-25T01:27:56;3.50;99.90
49242;DHT22;35079;52.704;13.814;2023-02-25T01:30:22;3.50;99.90
49242;DHT22;35079;52.704;13.814;2023-02-25T01:32:48;3.30;99.90
49242;DHT22;35079;52.704;13.814;2023-02-25T01:35:14;3.40;99.90
49242;DHT22;35079;52.704;13.814;2023-02-25T01:37:39;3.50;99.90
49242;DHT22;35079;52.704;13.814;2023-02-25T01:40:13;3.50;99.90
49242;DHT22;35079;52.704;13.814;2023-02-25T01:42:42;3.40;99.90
49242;DHT22;35079;52.704;13.814;2023-02-25T01:47:45;3.30;99.90
49242;DHT22;35079;52.704;13.814;2023-02-25T01:50:13;3.40;99.90
49242;DHT22;35079;52.704;13.814;2023-02-25T01:52:39;3.50;99.90
49242;DHT22;35079;52.704;13.814;2023-02-25T01:55:07;3.50;99.90
49242;DHT22;35079;52.704;13.814;2023-02-25T01:57:34;3.40;99.90
49242;DHT22;35079;52.704;13.814;2023-02-25T02:00:00;3.60;99.90
49242;DHT22;35079;52.704;13.814;2023-02-25T02:02:27;3.40;99.90
49242;DHT22;35079;52.704;13.814;2023-02-25T02:04:53;3.40;99.90
49242;DHT22;35079;52.704;13.814;2023-02-25T02:07:20;3.40;99.90
49242;DHT22;35079;52.704;13.814;2023-02-25T02:09:46;3.40;99.90
49242;DHT22;35079;52.704;13.814;2023-02-25T02:12:28;3.50;99.90
49242;DHT22;35079;52.704;13.814;2023-02-25T02:14:55;3.40;99.90
49242;DHT22;35079;52.704;13.814;2023-02-25T02:20:24;3.40;99.90
49242;DHT22;35079;52.704;13.814;2023-02-25T02:23:07;3.40;99.90
49242;DHT22;35079;52.704;13.814;2023-02-25T02:37:17;3.30;99.90
49242;DHT22;35079;52.704;13.814;2023-02-25T02:39:46;3.20;99.90
49242;DHT22;35079;52.704;13.814;2023-02-25T02:45:21;3.30;99.90
49242;DHT22;35079;52.704;13.814;2023-02-25T02:48:02;3.40;99.90
49242;DHT22;35079;52.704;13.814;2023-02-25T02:50:36;3.50;99.90
49242;DHT22;35079;52.704;13.814;2023-02-25T02:53:11;3.30;99.90
49242;DHT22;35079;52.704;13.814;2023-02-25T02:55:42;3.40;99.90
49242;DHT22;35079;52.704;13.814;2023-02-25T02:58:34;3.30;99.90
49242;DHT22;35079;52.704;13.814;2023-02-25T03:01:06;3.40;99.90
49242;DHT22;35079;52.704;13.814;2023-02-25T03:03:35;3.40;99.90
49242;DHT22;35079;52.704;13.814;2023-02-25T03:06:08;3.40;99.90
49242;DHT22;35079;52.704;13.814;2023-02-25T03:08:41;3.50;99.90
49242;DHT22;35079;52.704;13.814;2023-02-25T03:11:09;3.50;99.90
49242;DHT22;35079;52.704;13.814;2023-02-25T03:13:35;3.40;99.90
49242;DHT22;35079;52.704;13.814;2023-02-25T03:16:04;3.40;99.90
49242;DHT22;35079;52.704;13.814;2023-02-25T03:18:52;3.40;99.90
49242;DHT22;35079;52.704;13.814;2023-02-25T03:21:22;3.30;99.90
49242;DHT22;35079;52.704;13.814;2023-02-25T03:23:50;3.40;99.90
49242;DHT22;35079;52.704;13.814;2023-02-25T03:26:26;3.40;99.90
49242;DHT22;35079;52.704;13.814;2023-02-25T03:28:53;3.30;99.90
49242;DHT22;35079;52.704;13.814;2023-02-25T03:31:26;3.50;99.90
49242;DHT22;35079;52.704;13.814;2023-02-25T03:36:39;3.30;99.90
49242;DHT22;35079;52.704;13.814;2023-02-25T03:39:20;3.30;99.90
49242;DHT22;35079;52.704;13.814;2023-02-25T03:41:51;3.30;99.90
49242;DHT22;35079;52.704;13.814;2023-02-25T03:44:45;3.20;99.90
49242;DHT22;35079;52.704;13.814;2023-02-25T03:47:12;3.40;99.90
49242;DHT22;35079;52.704;13.814;2023-02-25T03:49:55;3.30;99.90
49242;DHT22;35079;52.704;13.814;2023-02-25T03:52:24;3.40;99.90
49242;DHT22;35079;52.704;13.814;2023-02-25T03:54:51;3.20;99.90
49242;DHT22;35079;52.704;13.814;2023-02-25T03:57:18;3.20;99.90
49242;DHT22;35079;52.704;13.814;2023-02-25T03:59:44;3.20;99.90
49242;DHT22;35079;52.704;13.814;2023-02-25T04:02:11;3.10;99.90
49242;DHT22;35079;52.704;13.814;2023-02-25T04:04:38;3.10;99.90
49242;DHT22;35079;52.704;13.814;2023-02-25T04:07:03;3.10;99.90
49242;DHT22;35079;52.704;13.814;2023-02-25T04:09:29;3.20;99.90
49242;DHT22;35079;52.704;13.814;2023-02-25T04:11:55;3.20;99.90
49242;DHT22;35079;52.704;13.814;2023-02-25T04:14:22;3.20;99.90
49242;DHT22;35079;52.704;13.814;2023-02-25T04:16:48;3.40;99.90
49242;DHT22;35079;52.704;13.814;2023-02-25T04:19:50;3.30;99.90
49242;DHT22;35079;52.704;13.814;2023-02-25T04:22:15;3.30;99.90
49242;DHT22;35079;52.704;13.814;2023-02-25T04:24:41;3.40;99.90
49242;DHT22;35079;52.704;13.814;2023-02-25T04:27:07;3.50;99.90
49242;DHT22;35079;52.704;13.814;2023-02-25T04:29:32;3.40;99.90
49242;DHT22;35079;52.704;13.814;2023-02-25T04:31:58;3.20;99.90
49242;DHT22;35079;52.704;13.814;2023-02-25T04:34:24;3.20;99.90
49242;DHT22;35079;52.704;13.814;2023-02-25T04:36:49;3.30;99.90
49242;DHT22;35079;52.704;13.814;2023-02-25T04:39:16;3.20;99.90
49242;DHT22;35079;52.704;13.814;2023-02-25T04:41:42;3.40;99.90
49242;DHT22;35079;52.704;13.814;2023-02-25T04:44:09;3.40;99.90
49242;DHT22;35079;52.704;13.814;2023-02-25T04:46:39;3.20;99.90
49242;DHT22;35079;52.704;13.814;2023-02-25T04:49:07;3.40;99.90
49242;DHT22;35079;52.704;13.814;2023-02-25T04:51:32;3.20;99.90
49242;DHT22;35079;52.704;13.814;2023-02-25T04:53:58;3.10;99.90
49242;DHT22;35079;52.704;13.814;2023-02-25T04:56:24;3.10;99.90
49242;DHT22;35079;52.704;13.814;2023-02-25T04:58:49;3.30;99.90
49242;DHT22;35079;52.704;13.814;2023-02-25T05:01:15;3.20;99.90
49242;DHT22;35079;52.704;13.814;2023-02-25T05:03:40;3.10;99.90
49242;DHT22;35079;52.704;13.814;2023-02-25T05:06:07;3.10;99.90
49242;DHT22;35079;52.704;13.814;2023-02-25T05:08:34;3.20;99.90
49242;DHT22;35079;52.704;13.814;2023-02-25T05:11:01;3.10;99.90
49242;DHT22;35079;52.704;13.814;2023-02-25T05:13:27;3.10;99.90
49242;DHT22;35079;52.704;13.814;2023-02-25T05:16:06;3.00;99.90
49242;DHT22;35079;52.704;13.814;2023-02-25T05:18:34;3.00;99.90
49242;DHT22;35079;52.704;13.814;2023-02-25T05:21:00;3.00;99.90
49242;DHT22;35079;52.704;13.814;2023-02-25T05:23:26;3.10;99.90
49242;DHT22;35079;52.704;13.814;2023-02-25T05:25:51;2.90;99.90
49242;DHT22;35079;52.704;13.814;2023-02-25T05:28:17;3.10;99.90
49242;DHT22;35079;52.704;13.814;2023-02-25T05:30:42;2.90;99.90
49242;DHT22;35079;52.704;13.814;2023-02-25T05:33:08;2.90;99.90
49242;DHT22;35079;52.704;13.814;2023-02-25T05:35:34;2.80;99.90
49242;DHT22;35079;52.704;13.814;2023-02-25T05:37:59;2.70;99.90
49242;DHT22;35079;52.704;13.814;2023-02-25T05:40:25;2.60;99.90
49242;DHT22;35079;52.704;13.814;2023-02-25T05:42:51;2.60;99.90
49242;DHT22;35079;52.704;13.814;2023-02-25T05:45:17;2.50;99.90
49242;DHT22;35079;52.704;13.814;2023-02-25T05:47:43;2.70;99.90
49242;DHT22;35079;52.704;13.814;2023-02-25T05:50:09;2.50;99.90
49242;DHT22;35079;52.704;13.814;2023-02-25T05:52:35;2.50;99.90
49242;DHT22;35079;52.704;13.814;2023-02-25T05:55:01;2.50;99.90
49242;DHT22;35079;52.704;13.814;2023-02-25T05:57:27;2.60;99.90
49242;DHT22;35079;52.704;13.814;2023-02-25T05:59:55;2.50;99.90
49242;DHT22;35079;52.704;13.814;2023-02-25T06:02:21;2.50;99.90
49242;DHT22;35079;52.704;13.814;2023-02-25T06:04:46;2.70;99.90
49242;DHT22;35079;52.704;13.814;2023-02-25T06:07:13;2.70;99.90
49242;DHT22;35079;52.704;13.814;2023-02-25T06:09:38;2.60;99.90
49242;DHT22;35079;52.704;13.814;2023-02-25T06:12:04;2.60;99.90
49242;DHT22;35079;52.704;13.814;2023-02-25T06:14:30;2.70;99.90
49242;DHT22;35079;52.704;13.814;2023-02-25T06:16:56;2.60;99.90
49242;DHT22;35079;52.704;13.814;2023-02-25T06:19:22;2.70;99.90
49242;DHT22;35079;52.704;13.814;2023-02-25T06:21:53;2.60;99.90
49242;DHT22;35079;52.704;13.814;2023-02-25T06:24:19;2.60;99.90
49242;DHT22;35079;52.704;13.814;2023-02-25T06:26:45;2.80;99.90
49242;DHT22;35079;52.704;13.814;2023-02-25T06:29:11;2.60;99.90
49242;DHT22;35079;52.704;13.814;2023-02-25T06:31:37;2.60;99.90
49242;DHT22;35079;52.704;13.814;2023-02-25T06:34:03;2.70;99.90
49242;DHT22;35079;52.704;13.814;2023-02-25T06:36:28;2.80;99.90
49242;DHT22;35079;52.704;13.814;2023-02-25T06:38:54;2.60;99.90
49242;DHT22;35079;52.704;13.814;2023-02-25T06:41:21;2.80;99.90
49242;DHT22;35079;52.704;13.814;2023-02-25T06:43:47;2.60;99.90
49242;DHT22;35079;52.704;13.814;2023-02-25T06:46:21;2.60;99.90
49242;DHT22;35079;52.704;13.814;2023-02-25T06:48:47;2.60;99.90
49242;DHT22;35079;52.704;13.814;2023-02-25T06:51:13;2.50;99.90
49242;DHT22;35079;52.704;13.814;2023-02-25T06:53:41;2.60;99.90
49242;DHT22;35079;52.704;13.814;2023-02-25T06:56:08;2.80;99.90
49242;DHT22;35079;52.704;13.814;2023-02-25T06:58:34;2.60;99.90
49242;DHT22;35079;52.704;13.814;2023-02-25T07:01:05;2.60;99.90
49242;DHT22;35079;52.704;13.814;2023-02-25T07:03:31;2.70;99.90
49242;DHT22;35079;52.704;13.814;2023-02-25T07:05:56;2.70;99.90
49242;DHT22;35079;52.704;13.814;2023-02-25T07:08:22;2.70;99.90
49242;DHT22;35079;52.704;13.814;2023-02-25T07:10:48;2.80;99.90
49242;DHT22;35079;52.704;13.814;2023-02-25T07:13:13;2.60;99.90
49242;DHT22;35079;52.704;13.814;2023-02-25T07:15:39;2.60;99.90
49242;DHT22;35079;52.704;13.814;2023-02-25T07:18:05;2.80;99.90
49242;DHT22;35079;52.704;13.814;2023-02-25T07:20:31;2.90;99.90
49242;DHT22;35079;52.704;13.814;2023-02-25T07:22:56;2.70;99.90
49242;DHT22;35079;52.704;13.814;2023-02-25T07:25:22;2.70;99.90
49242;DHT22;35079;52.704;13.814;2023-02-25T07:27:48;2.60;99.90
49242;DHT22;35079;52.704;13.814;2023-02-25T07:30:14;2.70;99.90
49242;DHT22;35079;52.704;13.814;2023-02-25T07:32:40;2.70;99.90
49242;DHT22;35079;52.704;13.814;2023-02-25T07:35:07;2.70;99.90
49242;DHT22;35079;52.704;13.814;2023-02-25T07:37:33;2.70;99.90
49242;DHT22;35079;52.704;13.814;2023-02-25T07:39:59;2.80;99.90
49242;DHT22;35079;52.704;13.814;2023-02-25T07:42:29;2.70;99.90
49242;DHT22;35079;52.704;13.814;2023-02-25T07:44:54;2.70;99.90
49242;DHT22;35079;52.704;13.814;2023-02-25T07:47:20;2.80;99.90
49242;DHT22;35079;52.704;13.814;2023-02-25T07:49:49;2.90;99.90
49242;DHT22;35079;52.704;13.814;2023-02-25T07:52:15;2.70;99.90
49242;DHT22;35079;52.704;13.814;2023-02-25T07:54:41;3.00;99.90
49242;DHT22;35079;52.704;13.814;2023-02-25T07:57:07;2.90;99.90
49242;DHT22;35079;52.704;13.814;2023-02-25T07:59:32;2.80;99.90
49242;DHT22;35079;52.704;13.814;2023-02-25T08:01:59;2.80;99.90
49242;DHT22;35079;52.704;13.814;2023-02-25T08:04:24;2.90;99.90
49242;DHT22;35079;52.704;13.814;2023-02-25T08:06:50;2.80;99.90
49242;DHT22;35079;52.704;13.814;2023-02-25T08:09:18;2.80;99.90
49242;DHT22;35079;52.704;13.814;2023-02-25T08:11:44;2.80;99.90
49242;DHT22;35079;52.704;13.814;2023-02-25T08:14:10;2.80;99.90
49242;DHT22;35079;52.704;13.814;2023-02-25T08:16:36;2.90;99.90
49242;DHT22;35079;52.704;13.814;2023-02-25T08:19:02;2.90;99.90
49242;DHT22;35079;52.704;13.814;2023-02-25T08:21:28;2.90;99.90
49242;DHT22;35079;52.704;13.814;2023-02-25T08:23:55;2.90;99.90
49242;DHT22;35079;52.704;13.814;2023-02-25T08:26:22;3.20;99.90
49242;DHT22;35079;52.704;13.814;2023-02-25T08:28:49;3.10;99.90
49242;DHT22;35079;52.704;13.814;2023-02-25T08:31:14;3.20;99.90
49242;DHT22;35079;52.704;13.814;2023-02-25T08:33:43;3.20;99.90
49242;DHT22;35079;52.704;13.814;2023-02-25T08:36:11;3.30;99.90
49242;DHT22;35079;52.704;13.814;2023-02-25T08:38:38;3.20;99.90
49242;DHT22;35079;52.704;13.814;2023-02-25T08:41:05;3.20;99.90
49242;DHT22;35079;52.704;13.814;2023-02-25T08:43:31;3.20;99.90
49242;DHT22;35079;52.704;13.814;2023-02-25T08:45:57;3.20;99.90
49242;DHT22;35079;52.704;13.814;2023-02-25T08:48:23;3.30;99.90
49242;DHT22;35079;52.704;13.814;2023-02-25T08:50:49;3.20;99.90
49242;DHT22;35079;52.704;13.814;2023-02-25T08:53:14;3.10;99.90
49242;DHT22;35079;52.704;13.814;2023-02-25T08:55:40;3.10;99.90
49242;DHT22;35079;52.704;13.814;2023-02-25T08:58:06;3.10;99.90
49242;DHT22;35079;52.704;13.814;2023-02-25T09:00:32;3.30;99.90
49242;DHT22;35079;52.704;13.814;2023-02-25T09:02:58;3.30;99.90
49242;DHT22;35079;52.704;13.814;2023-02-25T09:05:24;3.30;99.90
49242;DHT22;35079;52.704;13.814;2023-02-25T09:07:51;3.00;99.90
49242;DHT22;35079;52.704;13.814;2023-02-25T09:13:21;2.90;99.90
49242;DHT22;35079;52.704;13.814;2023-02-25T09:15:55;3.10;99.90
49242;DHT22;35079;52.704;13.814;2023-02-25T09:18:21;3.00;99.90
49242;DHT22;35079;52.704;13.814;2023-02-25T09:20:50;3.20;99.90
49242;DHT22;35079;52.704;13.814;2023-02-25T09:23:16;3.00;99.90
49242;DHT22;35079;52.704;13.814;2023-02-25T09:25:42;3.10;99.90
49242;DHT22;35079;52.704;13.814;2023-02-25T09:28:11;3.10;99.90
49242;DHT22;35079;52.704;13.814;2023-02-25T09:30:37;3.30;99.90
49242;DHT22;35079;52.704;13.814;2023-02-25T09:33:03;3.20;99.90
49242;DHT22;35079;52.704;13.814;2023-02-25T09:35:28;3.00;99.90
49242;DHT22;35079;52.704;13.814;2023-02-25T09:37:54;3.10;99.90
49242;DHT22;35079;52.704;13.814;2023-02-25T09:40:20;3.20;99.90
49242;DHT22;35079;52.704;13.814;2023-02-25T09:45:17;3.30;99.90
49242;DHT22;35079;52.704;13.814;2023-02-25T09:47:48;3.50;99.90
49242;DHT22;35079;52.704;13.814;2023-02-25T09:50:29;3.60;99.90
49242;DHT22;35079;52.704;13.814;2023-02-25T09:55:49;3.40;99.90
49242;DHT22;35079;52.704;13.814;2023-02-25T09:58:31;3.40;99.90
49242;DHT22;35079;52.704;13.814;2023-02-25T10:01:11;3.40;99.90
49242;DHT22;35079;52.704;13.814;2023-02-25T10:03:43;3.30;99.90
49242;DHT22;35079;52.704;13.814;2023-02-25T10:06:20;3.10;99.90
49242;DHT22;35079;52.704;13.814;2023-02-25T10:11:34;3.10;99.90
49242;DHT22;35079;52.704;13.814;2023-02-25T10:16:49;3.20;99.90
49242;DHT22;35079;52.704;13.814;2023-02-25T10:25:02;3.20;99.90
49242;DHT22;35079;52.704;13.814;2023-02-25T10:27:35;3.20;99.90
49242;DHT22;35079;52.704;13.814;2023-02-25T10:30:20;3.10;99.90
49242;DHT22;35079;52.704;13.814;2023-02-25T10:32:47;3.20;99.90
49242;DHT22;35079;52.704;13.814;2023-02-25T10:37:39;3.50;99.90
49242;DHT22;35079;52.704;13.814;2023-02-25T10:40:06;3.40;99.90
49242;DHT22;35079;52.704;13.814;2023-02-25T10:42:36;3.40;99.90
49242;DHT22;35079;52.704;13.814;2023-02-25T10:45:07;3.50;99.90
49242;DHT22;35079;52.704;13.814;2023-02-25T10:47:36;3.60;99.90
49242;DHT22;35079;52.704;13.814;2023-02-25T10:50:24;3.50;99.90
49242;DHT22;35079;52.704;13.814;2023-02-25T10:58:38;3.70;99.90
49242;DHT22;35079;52.704;13.814;2023-02-25T11:01:17;3.70;99.90
49242;DHT22;35079;52.704;13.814;2023-02-25T11:03:55;4.00;99.90
49242;DHT22;35079;52.704;13.814;2023-02-25T11:06:35;4.00;99.90
49242;DHT22;35079;52.704;13.814;2023-02-25T11:11:55;3.90;99.90
49242;DHT22;35079;52.704;13.814;2023-02-25T11:14:29;3.50;99.90
49242;DHT22;35079;52.704;13.814;2023-02-25T11:17:05;3.50;99.90
49242;DHT22;35079;52.704;13.814;2023-02-25T11:19:45;3.20;99.90
49242;DHT22;35079;52.704;13.814;2023-02-25T11:22:44;3.20;99.90
49242;DHT22;35079;52.704;13.814;2023-02-25T11:25:37;3.70;99.90
49242;DHT22;35079;52.704;13.814;2023-02-25T11:28:06;3.90;99.90
49242;DHT22;35079;52.704;13.814;2023-02-25T11:30:41;4.20;99.90
49242;DHT22;35079;52.704;13.814;2023-02-25T11:33:49;4.30;99.90
49242;DHT22;35079;52.704;13.814;2023-02-25T11:39:14;4.60;99.90
49242;DHT22;35079;52.704;13.814;2023-02-25T11:41:43;4.80;99.90
49242;DHT22;35079;52.704;13.814;2023-02-25T11:47:21;4.70;99.90
49242;DHT22;35079;52.704;13.814;2023-02-25T11:56:25;3.90;99.90
49242;DHT22;35079;52.704;13.814;2023-02-25T12:01:45;4.30;99.90
49242;DHT22;35079;52.704;13.814;2023-02-25T12:15:54;4.10;99.90
49242;DHT22;35079;52.704;13.814;2023-02-25T12:18:35;4.30;99.90
49242;DHT22;35079;52.704;13.814;2023-02-25T12:21:36;4.10;99.90
49242;DHT22;35079;52.704;13.814;2023-02-25T12:24:21;4.10;99.90
49242;DHT22;35079;52.704;13.814;2023-02-25T12:27:08;4.10;99.90
49242;DHT22;35079;52.704;13.814;2023-02-25T12:30:05;3.90;99.90
49242;DHT22;35079;52.704;13.814;2023-02-25T12:43:51;3.10;99.90
49242;DHT22;35079;52.704;13.814;2023-02-25T12:46:23;3.30;99.90
49242;DHT22;35079;52.704;13.814;2023-02-25T12:57:45;3.50;99.90
49242;DHT22;35079;52.704;13.814;2023-02-25T13:11:22;3.50;99.90
49242;DHT22;35079;52.704;13.814;2023-02-25T13:14:16;3.40;99.90
49242;DHT22;35079;52.704;13.814;2023-02-25T13:17:20;3.50;99.90
49242;DHT22;35079;52.704;13.814;2023-02-25T13:20:13;3.50;99.90
49242;DHT22;35079;52.704;13.814;2023-02-25T13:31:04;3.60;99.90
49242;DHT22;35079;52.704;13.814;2023-02-25T13:36:56;3.60;99.90
49242;DHT22;35079;52.704;13.814;2023-02-25T13:42:53;3.10;99.90
49242;DHT22;35079;52.704;13.814;2023-02-25T13:51:52;3.30;99.90
49242;DHT22;35079;52.704;13.814;2023-02-25T13:57:06;3.00;99.90
49242;DHT22;35079;52.704;13.814;2023-02-25T14:02:40;2.90;99.90
49242;DHT22;35079;52.704;13.814;2023-02-25T14:08:10;3.00;99.90
49242;DHT22;35079;52.704;13.814;2023-02-25T14:19:21;2.60;99.90
49242;DHT22;35079;52.704;13.814;2023-02-25T14:32:56;2.20;99.90
49242;DHT22;35079;52.704;13.814;2023-02-25T14:40:59;2.10;99.90
49242;DHT22;35079;52.704;13.814;2023-02-25T14:43:46;2.10;99.90
49242;DHT22;35079;52.704;13.814;2023-02-25T15:06:05;2.00;99.90
49242;DHT22;35079;52.704;13.814;2023-02-25T15:20:39;2.10;99.90
49242;DHT22;35079;52.704;13.814;2023-02-25T15:25:48;2.00;99.90
49242;DHT22;35079;52.704;13.814;2023-02-25T15:33:35;2.10;99.90
49242;DHT22;35079;52.704;13.814;2023-02-25T15:36:21;2.10;99.90
49242;DHT22;35079;52.704;13.814;2023-02-25T15:38:56;2.10;99.90
49242;DHT22;35079;52.704;13.814;2023-02-25T15:51:41;1.90;99.90
49242;DHT22;35079;52.704;13.814;2023-02-25T15:54:09;2.00;99.90
49242;DHT22;35079;52.704;13.814;2023-02-25T15:56:49;1.90;99.90
49242;DHT22;35079;52.704;13.814;2023-02-25T15:59:38;1.90;99.90
49242;DHT22;35079;52.704;13.814;2023-02-25T16:07:46;1.80;99.90
49242;DHT22;35079;52.704;13.814;2023-02-25T16:12:46;1.90;99.90
49242;DHT22;35079;52.704;13.814;2023-02-25T16:17:51;1.90;99.90
49242;DHT22;35079;52.704;13.814;2023-02-25T16:20:29;1.70;99.90
49242;DHT22;35079;52.704;13.814;2023-02-25T16:22:59;1.70;99.90
49242;DHT22;35079;52.704;13.814;2023-02-25T16:25:59;1.50;99.90
49242;DHT22;35079;52.704;13.814;2023-02-25T16:34:03;1.70;99.90
49242;DHT22;35079;52.704;13.814;2023-02-25T16:36:40;1.60;99.90
49242;DHT22;35079;52.704;13.814;2023-02-25T16:39:14;1.50;99.90
49242;DHT22;35079;52.704;13.814;2023-02-25T16:41:41;1.60;99.90
49242;DHT22;35079;52.704;13.814;2023-02-25T16:44:07;1.50;99.90
49242;DHT22;35079;52.704;13.814;2023-02-25T16:46:36;1.40;99.90
49242;DHT22;35079;52.704;13.814;2023-02-25T16:49:10;1.50;99.90
49242;DHT22;35079;52.704;13.814;2023-02-25T16:51:43;1.70;99.90
49242;DHT22;35079;52.704;13.814;2023-02-25T16:54:19;1.50;99.90
49242;DHT22;35079;52.704;13.814;2023-02-25T16:56:50;1.40;99.90
49242;DHT22;35079;52.704;13.814;2023-02-25T16:59:19;1.40;99.90
49242;DHT22;35079;52.704;13.814;2023-02-25T17:04:22;1.40;99.90
49242;DHT22;35079;52.704;13.814;2023-02-25T17:09:50;1.20;99.90
49242;DHT22;35079;52.704;13.814;2023-02-25T17:12:35;1.20;99.90
49242;DHT22;35079;52.704;13.814;2023-02-25T17:15:04;1.30;99.90
49242;DHT22;35079;52.704;13.814;2023-02-25T17:17:37;1.20;99.90
49242;DHT22;35079;52.704;13.814;2023-02-25T17:20:15;1.40;99.90
49242;DHT22;35079;52.704;13.814;2023-02-25T17:22:43;1.20;99.90
49242;DHT22;35079;52.704;13.814;2023-02-25T17:25:13;1.20;99.90
49242;DHT22;35079;52.704;13.814;2023-02-25T17:27:41;1.30;99.90
49242;DHT22;35079;52.704;13.814;2023-02-25T17:30:40;1.10;99.90
49242;DHT22;35079;52.704;13.814;2023-02-25T17:33:23;1.00;99.90
49242;DHT22;35079;52.704;13.814;2023-02-25T17:35:51;1.00;99.90
49242;DHT22;35079;52.704;13.814;2023-02-25T17:38:20;1.00;99.90
49242;DHT22;35079;52.704;13.814;2023-02-25T17:40:47;1.20;99.90
49242;DHT22;35079;52.704;13.814;2023-02-25T17:43:24;1.00;99.90
49242;DHT22;35079;52.704;13.814;2023-02-25T17:45:55;1.00;99.90
49242;DHT22;35079;52.704;13.814;2023-02-25T17:48:29;1.20;99.90
49242;DHT22;35079;52.704;13.814;2023-02-25T17:51:05;0.90;99.90
49242;DHT22;35079;52.704;13.814;2023-02-25T17:56:28;0.90;99.90
49242;DHT22;35079;52.704;13.814;2023-02-25T18:01:42;1.00;99.90
49242;DHT22;35079;52.704;13.814;2023-02-25T18:04:31;1.00;99.90
49242;DHT22;35079;52.704;13.814;2023-02-25T18:06:57;1.00;99.90
49242;DHT22;35079;52.704;13.814;2023-02-25T18:09:47;1.00;99.90
49242;DHT22;35079;52.704;13.814;2023-02-25T18:12:24;1.10;99.90
49242;DHT22;35079;52.704;13.814;2023-02-25T18:14:54;1.00;99.90
49242;DHT22;35079;52.704;13.814;2023-02-25T18:17:25;1.10;99.90
49242;DHT22;35079;52.704;13.814;2023-02-25T18:19:53;1.00;99.90
49242;DHT22;35079;52.704;13.814;2023-02-25T18:22:36;1.00;99.90
49242;DHT22;35079;52.704;13.814;2023-02-25T18:25:27;1.00;99.90
49242;DHT22;35079;52.704;13.814;2023-02-25T18:27:53;0.90;99.90
49242;DHT22;35079;52.704;13.814;2023-02-25T18:30:21;1.00;99.90
49242;DHT22;35079;52.704;13.814;2023-02-25T18:32:48;0.90;99.90
49242;DHT22;35079;52.704;13.814;2023-02-25T18:35:14;0.90;99.90
49242;DHT22;35079;52.704;13.814;2023-02-25T18:37:44;0.90;99.90
49242;DHT22;35079;52.704;13.814;2023-02-25T18:40:44;0.90;99.90
49242;DHT22;35079;52.704;13.814;2023-02-25T18:43:28;1.00;99.90
49242;DHT22;35079;52.704;13.814;2023-02-25T18:45:59;0.90;99.90
49242;DHT22;35079;52.704;13.814;2023-02-25T18:48:25;0.90;99.90
49242;DHT22;35079;52.704;13.814;2023-02-25T18:50:50;1.00;99.90
49242;DHT22;35079;52.704;13.814;2023-02-25T18:53:21;0.90;99.90
49242;DHT22;35079;52.704;13.814;2023-02-25T18:55:48;1.00;99.90
49242;DHT22;35079;52.704;13.814;2023-02-25T18:58:16;1.00;99.90
49242;DHT22;35079;52.704;13.814;2023-02-25T19:00:44;0.90;99.90
49242;DHT22;35079;52.704;13.814;2023-02-25T19:05:59;0.70;99.90
49242;DHT22;35079;52.704;13.814;2023-02-25T19:08:24;0.90;99.90
49242;DHT22;35079;52.704;13.814;2023-02-25T19:10:51;0.90;99.90
49242;DHT22;35079;52.704;13.814;2023-02-25T19:13:19;0.90;99.90
49242;DHT22;35079;52.704;13.814;2023-02-25T19:15:45;0.90;99.90
49242;DHT22;35079;52.704;13.814;2023-02-25T19:18:12;1.00;99.90
49242;DHT22;35079;52.704;13.814;2023-02-25T19:20:39;1.00;99.90
49242;DHT22;35079;52.704;13.814;2023-02-25T19:23:10;0.90;99.90
49242;DHT22;35079;52.704;13.814;2023-02-25T19:25:36;0.80;99.90
49242;DHT22;35079;52.704;13.814;2023-02-25T19:28:03;0.90;99.90
49242;DHT22;35079;52.704;13.814;2023-02-25T19:30:34;0.90;99.90
49242;DHT22;35079;52.704;13.814;2023-02-25T19:33:01;0.90;99.90
49242;DHT22;35079;52.704;13.814;2023-02-25T19:35:28;0.90;99.90
49242;DHT22;35079;52.704;13.814;2023-02-25T19:37:54;0.80;99.90
49242;DHT22;35079;52.704;13.814;2023-02-25T19:40:20;0.90;99.90
49242;DHT22;35079;52.704;13.814;2023-02-25T19:42:46;0.90;99.90
49242;DHT22;35079;52.704;13.814;2023-02-25T19:45:16;0.80;99.90
49242;DHT22;35079;52.704;13.814;2023-02-25T19:47:43;0.90;99.90
49242;DHT22;35079;52.704;13.814;2023-02-25T19:50:10;0.90;99.90
49242;DHT22;35079;52.704;13.814;2023-02-25T19:52:36;1.00;99.90
49242;DHT22;35079;52.704;13.814;2023-02-25T19:55:03;1.00;99.90
49242;DHT22;35079;52.704;13.814;2023-02-25T19:57:29;1.00;99.90